»·PEaware :: N22088 KVGT-KVGT

N22088 :: KVGT-KVGT

FLIGHT INFORMATION

Flight Status: Arrived
Operator: Privately registered:
United States
More flights under this callsign
Pilot: Ricardo J. (20992)
Aircraft: CESSNA 172 SKYHAWK
(C172)
More flights by this aircraft type
Origin: KVGT North Las Vegas
United States
Destination: KVGT North Las Vegas
United States
More flights between these airports :: More routes between these airports
Route: LAKE MEAD
File this flight plan on PilotEdge
Remarks:
Altitude:
(Current/Filed)
7,000ft
Speed:
(Current/Filed)
107kts
Departed: 14-Apr-19 04:16 PM
Arrived: 14-Apr-19 05:10 PM
Distance/Time
Traveled:
0nm/0:54
Distance/Time
To Go:
Arrived

Flight Plot

Page will automatically refresh every two minutes.

Flight plan parsing failed; only flown route is shown


Map Options




Map Legend


Flown Route
Filed Route
Departure Airport
Arrival Airport
Navaid (VOR, NDB)
Fix

Horizontal Profiles

Position Reports

Time Latitude Longitude Heading Altitude Ground
Speed
14-Apr-19 15:48 36.209366 -115.203189 144 2206ft 0kts
14-Apr-19 15:49 36.209366 -115.203189 144 2206ft 0kts
14-Apr-19 15:50 36.209366 -115.203189 144 2206ft 0kts
14-Apr-19 15:52 36.209366 -115.203189 144 2206ft 0kts
14-Apr-19 15:52 36.209366 -115.203189 144 2206ft 0kts
14-Apr-19 15:53 36.209366 -115.203189 144 2206ft 0kts
14-Apr-19 15:54 36.209366 -115.203189 144 2206ft 0kts
14-Apr-19 15:55 36.209366 -115.203189 144 2206ft 0kts
14-Apr-19 15:56 36.209366 -115.203189 144 2206ft 0kts
14-Apr-19 15:57 36.209366 -115.203189 144 2206ft 0kts
14-Apr-19 15:58 36.209366 -115.203189 144 2206ft 0kts
14-Apr-19 15:59 36.209366 -115.203189 144 2206ft 0kts
14-Apr-19 16:00 36.209366 -115.203189 144 2206ft 0kts
14-Apr-19 16:01 36.209366 -115.203189 144 2206ft 0kts
14-Apr-19 16:02 36.209366 -115.203189 144 2206ft 0kts
14-Apr-19 16:03 36.209366 -115.203189 144 2206ft 0kts
14-Apr-19 16:04 36.209365 -115.203188 144 2206ft 0kts
14-Apr-19 16:05 36.209365 -115.203188 144 2206ft 0kts
14-Apr-19 16:06 36.209366 -115.203189 144 2206ft 0kts
14-Apr-19 16:07 36.209387 -115.202816 53 2205ft 8kts
14-Apr-19 16:08 36.210787 -115.199760 78 2199ft 9kts
14-Apr-19 16:09 36.211264 -115.199538 312 2199ft 7kts
14-Apr-19 16:10 36.212453 -115.200966 346 2203ft 0kts
14-Apr-19 16:11 36.212453 -115.200966 346 2203ft 0kts
14-Apr-19 16:12 36.212453 -115.200966 346 2203ft 0kts
14-Apr-19 16:13 36.212453 -115.200966 346 2203ft 0kts
14-Apr-19 16:14 36.212706 -115.200663 62 2202ft 2kts
14-Apr-19 16:15 36.203684 -115.188568 140 2483ft 90kts
14-Apr-19 16:16 36.195819 -115.193719 317 3612ft 91kts
14-Apr-19 16:17 36.222886 -115.212888 323 3773ft 122kts
14-Apr-19 16:18 36.256854 -115.218162 15 3676ft 123kts
14-Apr-19 16:19 36.288408 -115.198958 34 3492ft 127kts
14-Apr-19 16:20 36.318400 -115.178557 13 3556ft 123kts
14-Apr-19 16:21 36.333434 -115.150656 105 4386ft 97kts
14-Apr-19 16:22 36.331936 -115.118484 102 5320ft 92kts
14-Apr-19 16:23 36.326437 -115.081484 108 5446ft 117kts
14-Apr-19 16:24 36.324804 -115.041916 83 5442ft 116kts
14-Apr-19 16:25 36.347353 -115.010629 43 5098ft 129kts
14-Apr-19 16:26 36.372154 -114.979600 51 4911ft 125kts
14-Apr-19 16:27 36.395855 -114.954577 43 5412ft 100kts
14-Apr-19 16:28 36.419245 -114.930445 47 5695ft 112kts
14-Apr-19 16:29 36.443602 -114.900014 43 5606ft 124kts
14-Apr-19 16:30 36.467830 -114.877231 36 5603ft 126kts
14-Apr-19 16:31 36.495076 -114.852446 43 5496ft 130kts
14-Apr-19 16:32 36.513574 -114.817738 98 5433ft 118kts
14-Apr-19 16:33 36.504380 -114.779277 120 5388ft 115kts
14-Apr-19 16:34 36.487669 -114.746021 134 5372ft 111kts
14-Apr-19 16:35 36.469698 -114.714739 122 5359ft 112kts
14-Apr-19 16:36 36.455012 -114.681505 126 5456ft 104kts
14-Apr-19 16:37 36.436902 -114.653563 142 5589ft 102kts
14-Apr-19 16:38 36.414066 -114.633036 152 5727ft 101kts
14-Apr-19 16:39 36.390184 -114.614237 148 5765ft 102kts
14-Apr-19 16:40 36.365893 -114.596140 155 5801ft 100kts
14-Apr-19 16:41 36.340892 -114.580165 156 5790ft 100kts
14-Apr-19 16:42 36.316385 -114.563117 151 5767ft 101kts
14-Apr-19 16:43 36.291218 -114.546407 157 5682ft 103kts
14-Apr-19 16:44 36.264257 -114.532811 164 5511ft 106kts
14-Apr-19 16:45 36.237390 -114.531766 190 5612ft 92kts
14-Apr-19 16:46 36.213101 -114.540371 198 5579ft 90kts
14-Apr-19 16:47 36.191023 -114.555264 223 5497ft 94kts
14-Apr-19 16:48 36.184843 -114.588254 246 5519ft 99kts
14-Apr-19 16:49 36.176697 -114.620790 241 5545ft 97kts
14-Apr-19 16:50 36.167352 -114.652401 242 5528ft 98kts
14-Apr-19 16:51 36.158308 -114.684670 247 5566ft 100kts
14-Apr-19 16:52 36.151394 -114.718465 247 5621ft 101kts
14-Apr-19 16:53 36.143849 -114.752402 245 5668ft 102kts
14-Apr-19 16:54 36.137931 -114.787361 248 5667ft 101kts
14-Apr-19 16:55 36.130881 -114.820219 243 5425ft 95kts
14-Apr-19 16:56 36.122637 -114.852382 242 4379ft 100kts
14-Apr-19 16:57 36.122459 -114.888850 293 3615ft 118kts
14-Apr-19 16:58 36.139152 -114.925338 296 3686ft 125kts
14-Apr-19 16:59 36.150538 -114.965736 270 3692ft 125kts
14-Apr-19 17:00 36.155566 -115.009071 277 3629ft 128kts
14-Apr-19 17:01 36.161117 -115.050887 270 3614ft 108kts
14-Apr-19 17:02 36.163655 -115.086623 268 3599ft 102kts
14-Apr-19 17:03 36.166486 -115.119119 268 3622ft 82kts
14-Apr-19 17:04 36.170998 -115.148518 279 3742ft 88kts
14-Apr-19 17:05 36.182260 -115.177116 295 3365ft 92kts
14-Apr-19 17:06 36.200698 -115.199285 323 3154ft 94kts
14-Apr-19 17:07 36.221885 -115.216219 328 3076ft 79kts
14-Apr-19 17:08 36.221196 -115.208787 183 2651ft 59kts
14-Apr-19 17:09 36.211243 -115.198362 137 2197ft 16kts
14-Apr-19 17:10 36.210433 -115.198290 233 2195ft 0kts
14-Apr-19 17:11 36.210077 -115.198882 216 2196ft 0kts

Navigation Log

Ident Type
Flight plan parsing failed, navigation log unavailable